Terminal Aerodrome Forecast
Issued by NWS

Home | Current Version | Previous Version | Text Only | Print | Product List | Glossary On
Versions: 1 2 3 4 5 6 7 8 9 10 11 12 13 14
000
FTUS44 KTSA 010520
TAFXNA
TAF
KXNA 010520Z 0106/0206 14006KT P6SM SKC
     FM011500 18008KT P6SM SKC
     FM020100 15003KT P6SM SKC=

USA.gov is the U.S. government's official web portal to all federal, state and local government web resources and services.